Terminal Aerodrome Forecast
Issued by NWS

Home | Current Version | Previous Version | Text Only | Print | Product List | Glossary On
Versions: 1 2 3 4 5 6 7 8 9 10 11 12 13 14 15 16 17
665
FTUS46 KSTO 071606 AAA
TAFSAC
TAF AMD
KSAC 071606Z 0716/0812 VRB04KT P6SM OVC150
     FM072300 VRB04KT P6SM OVC050
     FM080200 05004KT 4SM -RA OVC040
     FM080700 12006KT 6SM -RA OVC025=

USA.gov is the U.S. government's official web portal to all federal, state and local government web resources and services.